الصفحة الرئيسية
METAR-TAF:

METAR-TAF

مطار :

تشيبوكساري, روسيا

دائرة عرض: 56-05-24N, خط طول: 047-20-50E, ارتفاع: 171 متر

مراقبة الطقس الحالي

تاريخ ووقت الإصدار 31 دقيقة قبل الساعة 01:30UTC
ريح 4 عقدة من الشمال
درجة الحرارة 17°درجة مئوية
الرطوبة 82%
ضغط 1014 hPa
الرؤية 10 كم أو أكثر
الغيوم لا تقل 1500 م ولا وجود لمزنة ركامية السحاب الأسود

METAR: UWKS 150130Z 36002MPS CAVOK 17/14 Q1014 R06/090060 NOSIG RMK QFE745

زمن: 05:01 (02:01 UTC)

توقعات

تاريخ ووقت الإصدار 6ساعات و 13 دقيقة قبل الساعة 19:48UTC
التوقعات صالحة من14 الساعة 21 UTC إلى 15 الساعة 06 UTC
ريح 6 عقدة من الشمال الشرقي
الرؤية: 8000 متر
غيوم متفرقة على ارتفاع 4000 قدم

TAF: UWKS 141948Z 1421/1506 04003MPS 8000 SCT040 TX24/1506Z TN18/1502Z

أرصاد الطقس والتوقعات من أكثر من 4000 مطار (تقارير الطقس للمطار METAR والتنبؤ بالطقس بالمطارTAF).

المحطات المتاحة هي النقط الصفراء والحمراء على الخريطة.

حرك المؤشر فوق النقطة لمعرفة اسم المحطة.

ثم انقر لمعرفة أرصاد وتوقعات الطقس.

لتغيير الخارطة: اضغط على الأزرار الخضراء مع رمز الصليب الأسود للتكبير. على الزر الأخضر مع شرطة للتصغير، أو على الأسهم الخضراء للخرائط المجاورة.


METAR-TAF: